createdAt,value
2023-04-20T07:37:27.048Z,12.80
2023-04-20T07:37:35.901Z,12.90
2023-04-20T07:37:45.907Z,13.60
2023-04-20T07:37:56.305Z,13.60
2023-04-20T07:38:06.169Z,13.70
2023-04-20T07:38:16.598Z,13.20
2023-04-20T07:38:28.414Z,17.60
2023-04-20T07:38:36.781Z,17.20
2023-04-20T07:38:46.814Z,15.70
2023-04-20T07:38:56.857Z,14.30
2023-04-20T07:39:07.000Z,13.20
2023-04-20T07:39:17.166Z,12.00
2023-04-20T07:39:37.308Z,5.60
2023-04-20T07:39:47.366Z,6.40
2023-04-20T07:39:57.562Z,7.10
2023-04-20T07:40:07.715Z,8.60
2023-04-20T07:40:17.731Z,10.60
2023-04-20T07:40:27.804Z,11.90
2023-04-20T07:40:37.909Z,12.40
2023-04-20T07:40:48.119Z,13.00
2023-04-20T07:40:58.247Z,13.20
2023-04-20T07:41:08.249Z,12.90
2023-04-20T07:41:18.680Z,11.20
2023-04-20T07:41:28.597Z,11.70
2023-04-20T07:41:39.792Z,12.30
2023-04-20T07:41:48.870Z,11.20
2023-04-20T07:41:59.024Z,10.40
2023-04-20T07:42:09.285Z,10.50
2023-04-20T07:42:19.273Z,9.30
2023-04-20T07:42:29.596Z,8.50
2023-04-20T07:42:40.124Z,7.70
2023-04-20T07:42:49.692Z,7.60
2023-04-20T07:42:59.822Z,8.10
2023-04-20T07:43:09.777Z,10.00
2023-04-20T07:43:20.757Z,12.00
2023-04-20T07:43:30.028Z,15.30
2023-04-20T07:43:40.300Z,17.00
2023-04-20T07:43:50.255Z,17.40
2023-04-20T07:44:00.716Z,19.00
2023-04-20T07:44:11.506Z,16.10
2023-04-20T07:44:21.254Z,14.90
2023-04-20T07:44:30.794Z,11.40
2023-04-20T07:44:40.979Z,9.60
2023-04-20T07:44:51.032Z,9.60
2023-04-20T07:45:01.227Z,8.10
2023-04-20T07:45:21.395Z,8.70
2023-04-20T07:45:31.489Z,11.00
2023-04-20T07:45:41.625Z,11.60
2023-04-20T07:45:51.770Z,12.10
2023-04-20T07:46:02.063Z,11.20
2023-04-20T07:46:12.056Z,10.20
2023-04-20T07:46:22.236Z,9.50
2023-04-20T07:46:32.250Z,7.80
2023-04-20T07:46:42.350Z,6.60
2023-04-20T07:46:52.504Z,6.80
2023-04-20T07:47:03.290Z,8.00
2023-04-20T07:47:12.725Z,10.50
2023-04-20T07:47:22.823Z,12.00
2023-04-20T07:47:33.000Z,14.70
2023-04-20T07:47:43.234Z,16.60
2023-04-20T07:47:53.198Z,16.40
2023-04-20T07:48:03.362Z,15.30
2023-04-20T07:48:13.469Z,13.90
2023-04-20T07:48:23.956Z,15.10
2023-04-20T07:48:33.685Z,12.10
2023-04-20T07:48:43.892Z,12.50
2023-04-20T07:48:54.037Z,12.30
2023-04-20T07:49:04.181Z,12.70
2023-04-20T07:49:16.290Z,12.30
2023-04-20T07:49:25.815Z,11.50
2023-04-20T07:49:36.285Z,13.50
2023-04-20T07:49:44.772Z,11.80
2023-04-20T07:49:54.789Z,10.80
2023-04-20T07:50:04.992Z,11.10
2023-04-20T07:50:25.182Z,9.70
2023-04-20T07:50:35.102Z,8.70
2023-04-20T07:50:45.512Z,8.20
2023-04-20T07:50:55.442Z,10.00
2023-04-20T07:51:05.550Z,10.80
2023-04-20T07:51:15.810Z,13.10
2023-04-20T07:51:25.770Z,13.80
2023-04-20T07:52:37.205Z,22.60
2023-04-20T07:52:43.102Z,31.20
2023-04-20T07:52:53.296Z,18.90
2023-04-20T07:53:03.405Z,20.10
2023-04-20T07:53:13.638Z,19.70
2023-04-20T07:53:23.728Z,17.10
2023-04-20T07:53:44.850Z,16.80
2023-04-20T07:53:53.983Z,15.80
2023-04-20T07:54:04.005Z,16.00
2023-04-20T07:54:14.260Z,16.40
2023-04-20T07:54:24.431Z,15.30
2023-04-20T07:54:34.657Z,12.40
2023-04-20T07:54:54.797Z,11.90
2023-04-20T07:55:04.995Z,12.00
2023-04-20T07:55:15.089Z,10.80
2023-04-20T07:55:25.551Z,10.90
2023-04-20T07:55:35.655Z,10.80
2023-04-20T07:55:45.681Z,9.80
2023-04-20T07:55:56.251Z,10.00
2023-04-20T07:56:06.574Z,7.30
2023-04-20T07:56:15.915Z,7.30
2023-04-20T07:56:26.020Z,7.20
2023-04-20T07:56:36.004Z,7.40
2023-04-20T07:56:46.145Z,7.10
2023-04-20T07:56:56.363Z,6.50
2023-04-20T07:57:16.560Z,8.00
2023-04-20T07:57:26.694Z,8.60
2023-04-20T07:57:36.829Z,8.70
2023-04-20T07:57:46.952Z,9.90
2023-04-20T07:57:57.048Z,9.60
2023-04-20T07:58:07.156Z,9.20
2023-04-20T07:58:17.365Z,11.40
2023-04-20T07:58:27.651Z,13.40
2023-04-20T07:58:37.577Z,14.90
2023-04-20T07:58:47.743Z,15.00
2023-04-20T07:58:57.947Z,14.80
2023-04-20T07:59:08.105Z,15.40
2023-04-20T07:59:18.311Z,12.40
2023-04-20T07:59:28.330Z,10.10
2023-04-20T07:59:38.569Z,8.50
2023-04-20T07:59:48.638Z,7.80
2023-04-20T07:59:58.702Z,7.90
2023-04-20T08:00:08.888Z,7.70
2023-04-20T08:00:19.161Z,8.80
2023-04-20T08:00:29.478Z,9.10
2023-04-20T08:00:39.606Z,10.70
2023-04-20T08:00:49.432Z,12.00
2023-04-20T08:00:59.605Z,13.80
2023-04-20T08:01:09.615Z,15.50
2023-04-20T08:01:19.908Z,16.30
2023-04-20T08:01:29.934Z,16.80
2023-04-20T08:01:40.159Z,16.40
2023-04-20T08:01:50.157Z,15.70
2023-04-20T08:02:00.402Z,14.70
2023-04-20T08:02:10.646Z,13.20
2023-04-20T08:02:20.503Z,12.90
2023-04-20T08:02:30.692Z,13.00
2023-04-20T08:02:40.771Z,12.60
2023-04-20T08:02:51.831Z,12.90
2023-04-20T08:03:01.014Z,12.60
2023-04-20T08:03:11.161Z,13.50
2023-04-20T08:03:21.549Z,16.60
2023-04-20T08:03:31.684Z,17.70
2023-04-20T08:03:41.566Z,17.80
2023-04-20T08:04:01.795Z,18.40
2023-04-20T08:04:13.481Z,18.00
2023-04-20T08:04:22.263Z,14.20
2023-04-20T08:04:32.963Z,12.60
2023-04-20T08:04:42.514Z,13.60
2023-04-20T08:04:53.529Z,13.50
2023-04-20T08:05:02.970Z,14.80
2023-04-20T08:05:23.054Z,16.30
2023-04-20T08:05:33.024Z,16.70
2023-04-20T08:05:43.001Z,16.20
2023-04-20T08:05:53.182Z,16.20
2023-04-20T08:06:03.438Z,15.80
2023-04-20T08:06:13.435Z,14.60
2023-04-20T08:06:23.573Z,14.70
2023-04-20T08:06:33.721Z,15.30
2023-04-20T08:06:43.760Z,15.30
2023-04-20T08:06:53.880Z,16.00
2023-04-20T08:07:04.044Z,15.40
2023-04-20T08:07:14.053Z,16.00
2023-04-20T08:07:24.702Z,16.30
2023-04-20T08:07:35.184Z,15.50
2023-04-20T08:07:45.268Z,15.20
2023-04-20T08:07:54.681Z,15.00
2023-04-20T08:08:04.796Z,15.20
2023-04-20T08:08:14.781Z,15.30
2023-04-20T08:08:24.878Z,18.80
2023-04-20T08:08:45.009Z,18.80
2023-04-20T08:08:55.933Z,18.30
2023-04-20T08:09:05.215Z,18.80
2023-04-20T08:09:15.639Z,18.60
2023-04-20T08:09:25.589Z,16.10
2023-04-20T08:09:35.751Z,16.30
2023-04-20T08:09:45.823Z,16.50
2023-04-20T08:09:55.923Z,18.20
2023-04-20T08:10:06.105Z,18.80
2023-04-20T08:10:16.396Z,20.10
2023-04-20T08:10:26.252Z,21.90
2023-04-20T08:10:36.419Z,24.80
2023-04-20T08:10:46.626Z,27.40
2023-04-20T08:10:56.687Z,27.60
2023-04-20T08:11:06.733Z,28.60
2023-04-20T08:11:17.759Z,29.30
2023-04-20T08:11:26.940Z,26.90
2023-04-20T08:11:37.218Z,26.50
2023-04-20T08:11:47.762Z,24.30
2023-04-20T08:11:57.550Z,25.40
2023-04-20T08:12:07.551Z,24.10
2023-04-20T08:12:28.182Z,21.60
2023-04-20T08:12:38.900Z,21.30
2023-04-20T08:12:49.247Z,21.70
2023-04-20T08:12:58.955Z,19.40
2023-04-20T08:13:08.465Z,20.80
2023-04-20T08:13:18.608Z,20.00
2023-04-20T08:13:28.610Z,18.20
2023-04-20T08:13:51.818Z,19.20
2023-04-20T08:13:59.056Z,19.90
2023-04-20T08:14:09.209Z,19.70
2023-04-20T08:14:19.545Z,20.20
2023-04-20T08:14:29.405Z,21.10
2023-04-20T08:14:39.551Z,20.30
2023-04-20T08:14:59.674Z,19.80
2023-04-20T08:15:09.899Z,18.90
2023-04-20T08:15:20.006Z,20.40
2023-04-20T08:15:31.930Z,21.20
2023-04-20T08:15:40.270Z,19.70
2023-04-20T08:15:50.372Z,19.20
2023-04-20T08:16:00.493Z,20.10
2023-04-20T08:16:10.614Z,23.00
2023-04-20T08:16:20.907Z,23.10
2023-04-20T08:16:41.465Z,23.50
2023-04-20T08:16:51.418Z,24.90
2023-04-20T08:17:01.552Z,23.80
2023-04-20T08:17:11.387Z,42.00
2023-04-20T08:17:21.429Z,39.40
2023-04-20T08:17:31.554Z,28.90
2023-04-20T08:17:41.732Z,25.30
2023-04-20T08:17:51.828Z,22.40
2023-04-20T08:18:02.309Z,21.20
2023-04-20T08:18:12.108Z,17.00
2023-04-20T08:18:22.202Z,17.10
2023-04-20T08:18:32.311Z,21.90
2023-04-20T08:18:42.788Z,27.70
2023-04-20T08:18:52.657Z,55.10
2023-04-20T08:19:02.783Z,54.80
2023-04-20T08:19:23.047Z,26.40
2023-04-20T08:19:33.174Z,23.20
2023-04-20T08:19:44.949Z,21.90
2023-04-20T08:19:53.206Z,23.70
2023-04-20T08:20:03.543Z,20.50
2023-04-20T08:20:13.645Z,20.60
2023-04-20T08:20:23.880Z,21.50
2023-04-20T08:20:43.960Z,19.50
2023-04-20T08:20:54.165Z,16.80
2023-04-20T08:21:04.289Z,15.20
2023-04-20T08:21:14.576Z,16.40
2023-04-20T08:21:25.860Z,15.90
2023-04-20T08:21:34.594Z,16.80
2023-04-20T08:21:44.924Z,16.60
2023-04-20T08:21:54.999Z,16.50
2023-04-20T08:22:05.091Z,15.00
2023-04-20T08:22:15.237Z,15.10
2023-04-20T08:22:25.389Z,14.00
2023-04-20T08:22:35.490Z,13.10
2023-04-20T08:22:45.728Z,15.30
2023-04-20T08:22:55.755Z,14.90
2023-04-20T08:23:05.964Z,15.10
2023-04-20T08:23:16.043Z,14.90
2023-04-20T08:23:26.315Z,15.40
2023-04-20T08:23:36.224Z,15.60
2023-04-20T08:23:46.440Z,14.20
2023-04-20T08:23:56.639Z,14.80
2023-04-20T08:24:06.579Z,14.80
2023-04-20T08:24:17.171Z,14.50
2023-04-20T08:24:27.047Z,15.40
2023-04-20T08:24:36.894Z,15.10
2023-04-20T08:24:47.081Z,14.90
2023-04-20T08:24:57.199Z,14.40
2023-04-20T08:25:07.405Z,13.20
2023-04-20T08:25:17.453Z,13.70
2023-04-20T08:25:27.774Z,13.40
2023-04-20T08:25:37.796Z,15.10
2023-04-20T08:25:47.935Z,15.10
2023-04-20T08:25:57.977Z,16.60
2023-04-20T08:26:08.167Z,17.30
2023-04-20T08:26:19.201Z,16.40
2023-04-20T08:26:29.349Z,15.80
2023-04-20T08:26:38.634Z,16.30
2023-04-20T08:26:49.410Z,16.40
2023-04-20T08:26:58.759Z,17.40
2023-04-20T08:27:08.875Z,20.80
2023-04-20T08:27:29.096Z,27.80
2023-04-20T08:27:39.311Z,28.90
2023-04-20T08:27:49.405Z,34.50
2023-04-20T08:27:59.491Z,31.90
2023-04-20T08:28:15.733Z,29.80
2023-04-20T08:28:34.063Z,33.20
2023-04-20T08:28:40.333Z,26.20
2023-04-20T08:28:50.334Z,20.20
2023-04-20T08:29:00.393Z,20.00
2023-04-20T08:29:10.512Z,19.40
2023-04-20T08:29:20.725Z,15.40
2023-04-20T08:29:30.877Z,14.30
2023-04-20T08:29:40.954Z,14.60
2023-04-20T08:29:51.067Z,14.70
2023-04-20T08:30:01.332Z,15.50
2023-04-20T08:30:11.363Z,16.40
2023-04-20T08:30:21.586Z,21.30
2023-04-20T08:30:34.767Z,21.50
2023-04-20T08:30:41.854Z,21.80
2023-04-20T08:30:52.974Z,23.30
2023-04-20T08:31:02.245Z,23.60
2023-04-20T08:31:12.201Z,21.90
2023-04-20T08:31:22.425Z,17.50
2023-04-20T08:31:42.945Z,15.90
2023-04-20T08:31:52.979Z,15.90
2023-04-20T08:32:03.266Z,16.70
2023-04-20T08:32:13.073Z,15.80
2023-04-20T08:32:23.189Z,16.90
2023-04-20T08:32:33.363Z,16.80
2023-04-20T08:32:43.468Z,17.10
2023-04-20T08:32:53.498Z,16.50
2023-04-20T08:33:03.788Z,15.30
2023-04-20T08:33:13.814Z,15.80
2023-04-20T08:33:23.978Z,15.30
2023-04-20T08:33:34.011Z,17.00
2023-04-20T08:33:44.192Z,20.00
2023-04-20T08:33:54.389Z,21.10
2023-04-20T08:34:04.379Z,20.30
2023-04-20T08:34:15.278Z,20.30
2023-04-20T08:34:24.780Z,19.90
2023-04-20T08:34:36.101Z,18.30
2023-04-20T08:34:45.013Z,14.70
2023-04-20T08:34:54.892Z,12.80
2023-04-20T08:35:06.692Z,12.30
2023-04-20T08:35:25.441Z,11.30
2023-04-20T08:35:35.510Z,12.80
